Time;durP1;ratioP1;P1;durP2;ratioP2;P2;SDS_P1;SDS_P2;PMS_P1;PMS_P2;Temp;Humidity;BMP_temperature;BMP_pressure;BME280_temperature;BME280_humidity;BME280_pressure;Samples;Min_cycle;Max_cycle;Signal;HPM_P1;HPM_P2
2023/06/26 00:02:12;;;;;;;2.70;2.38;;;24.00;93.80;;;;;;5119502;27;47663;-59
2023/06/26 00:04:39;;;;;;;2.72;2.33;;;24.00;93.90;;;;;;5123903;27;45453;-58
2023/06/26 00:07:06;;;;;;;2.90;2.33;;;24.00;93.90;;;;;;5124262;27;45379;-58
2023/06/26 00:09:34;;;;;;;3.00;2.30;;;24.00;93.90;;;;;;5124719;27;45412;-59
2023/06/26 00:12:01;;;;;;;3.65;2.65;;;24.00;94.20;;;;;;5123845;27;47917;-58
2023/06/26 00:14:29;;;;;;;2.60;2.05;;;24.00;93.90;;;;;;5121837;27;45256;-58
2023/06/26 00:16:56;;;;;;;2.70;2.30;;;24.00;93.90;;;;;;5125114;27;45437;-58
2023/06/26 00:19:23;;;;;;;2.42;2.20;;;24.00;93.80;;;;;;5124460;27;45404;-58
2023/06/26 00:21:49;;;;;;;3.28;2.25;;;24.00;93.90;;;;;;5123986;27;46538;-58
2023/06/26 00:24:16;;;;;;;2.42;2.13;;;24.00;93.90;;;;;;5124616;27;45369;-58
2023/06/26 00:26:43;;;;;;;2.58;2.22;;;24.00;93.80;;;;;;5124588;27;45658;-58
2023/06/26 00:29:10;;;;;;;2.47;2.10;;;24.00;93.80;;;;;;5125005;27;45324;-58
2023/06/26 00:31:39;;;;;;;2.75;2.22;;;24.00;93.80;;;;;;5123605;27;47560;-59
2023/06/26 00:34:06;;;;;;;3.05;2.30;;;24.00;93.80;;;;;;5125305;27;45306;-58
2023/06/26 00:36:33;;;;;;;2.50;2.05;;;24.00;93.80;;;;;;5124497;27;45501;-58
2023/06/26 00:39:00;;;;;;;2.70;2.10;;;24.00;93.80;;;;;;5113225;27;45593;-58
2023/06/26 00:41:27;;;;;;;2.50;2.20;;;24.00;93.80;;;;;;5121832;27;46541;-59
2023/06/26 00:43:54;;;;;;;2.25;1.98;;;24.00;93.70;;;;;;5118670;27;45267;-58
2023/06/26 00:46:20;;;;;;;2.20;2.00;;;24.00;93.70;;;;;;5112913;27;45534;-58
2023/06/26 00:48:50;;;;;;;2.70;2.17;;;24.00;93.70;;;;;;5116236;27;45523;-58
2023/06/26 00:51:16;;;;;;;2.47;2.20;;;24.00;93.70;;;;;;5124498;27;45339;-59
2023/06/26 00:53:43;;;;;;;2.65;2.28;;;24.00;93.70;;;;;;5119443;27;45543;-58
2023/06/26 00:56:11;;;;;;;4.95;2.45;;;24.00;93.70;;;;;;5117612;27;45405;-58
2023/06/26 00:58:38;;;;;;;2.72;2.30;;;24.00;93.70;;;;;;5116965;27;45692;-58
2023/06/26 01:01:06;;;;;;;2.38;2.17;;;24.00;93.70;;;;;;5120753;27;46266;-58
2023/06/26 01:03:32;;;;;;;3.25;2.30;;;24.00;93.60;;;;;;5118170;27;45276;-58
2023/06/26 01:06:02;;;;;;;4.32;2.17;;;24.00;93.60;;;;;;5115806;27;45354;-58
2023/06/26 01:08:29;;;;;;;2.75;2.35;;;24.00;93.60;;;;;;5116007;27;45503;-58
2023/06/26 01:10:56;;;;;;;2.40;2.15;;;24.00;93.60;;;;;;5113620;27;46627;-58
2023/06/26 01:13:24;;;;;;;2.22;2.03;;;24.00;93.60;;;;;;5119150;27;45310;-58
2023/06/26 01:15:52;;;;;;;3.00;2.45;;;24.00;93.60;;;;;;5123495;27;45426;-59
2023/06/26 01:18:20;;;;;;;2.78;2.20;;;24.00;93.60;;;;;;5123044;27;45552;-59
2023/06/26 01:20:47;;;;;;;3.00;2.33;;;24.00;93.60;;;;;;5123528;27;46594;-58
2023/06/26 01:23:23;;;;;;;2.58;2.00;;;24.00;93.60;;;;;;5122714;27;45457;-59
2023/06/26 01:26:03;;;;;;;2.72;2.30;;;24.00;93.60;;;;;;5123580;27;45383;-59
2023/06/26 01:28:32;;;;;;;3.63;2.53;;;24.00;93.50;;;;;;5122023;27;45556;-58
2023/06/26 01:31:00;;;;;;;3.33;2.35;;;24.00;93.50;;;;;;5122028;27;45362;-59
2023/06/26 01:33:27;;;;;;;4.07;2.75;;;24.00;93.50;;;;;;5121107;27;46005;-58
2023/06/26 01:35:54;;;;;;;2.53;2.33;;;24.00;93.50;;;;;;5113654;27;45445;-58
2023/06/26 01:38:23;;;;;;;3.17;2.35;;;24.00;93.40;;;;;;5121454;27;45438;-58
2023/06/26 01:40:50;;;;;;;3.40;2.30;;;24.00;93.40;;;;;;5110663;27;48046;-58
2023/06/26 01:43:24;;;;;;;3.13;2.35;;;24.00;93.40;;;;;;5111491;27;46244;-58
2023/06/26 01:45:57;;;;;;;2.20;2.00;;;24.00;93.40;;;;;;5115453;27;45411;-58
2023/06/26 01:48:31;;;;;;;3.10;2.58;;;24.00;93.30;;;;;;5111247;27;45307;-58
2023/06/26 01:51:00;;;;;;;3.15;2.20;;;24.00;93.30;;;;;;5123804;27;48078;-58
2023/06/26 01:53:34;;;;;;;3.17;2.40;;;24.00;93.30;;;;;;5114274;27;45483;-58
2023/06/26 01:56:07;;;;;;;2.55;2.00;;;24.00;93.20;;;;;;5122335;27;45480;-58
2023/06/26 01:58:36;;;;;;;2.95;2.17;;;24.00;93.30;;;;;;5108153;27;45283;-58
2023/06/26 02:01:04;;;;;;;3.00;2.35;;;24.00;93.30;;;;;;5117690;27;47879;-58
2023/06/26 02:03:31;;;;;;;3.42;2.50;;;24.00;93.30;;;;;;5117695;27;45450;-58
2023/06/26 02:05:58;;;;;;;2.70;2.30;;;24.00;93.30;;;;;;5121196;27;45418;-58
2023/06/26 02:08:24;;;;;;;2.75;2.40;;;24.00;93.30;;;;;;5120043;27;45555;-58
2023/06/26 02:10:51;;;;;;;2.72;2.28;;;24.00;93.30;;;;;;5122054;27;46950;-58
2023/06/26 02:13:18;;;;;;;3.22;2.30;;;24.00;93.30;;;;;;5120066;27;45299;-58
2023/06/26 02:15:44;;;;;;;3.58;2.58;;;24.00;93.30;;;;;;5118621;27;45490;-59
2023/06/26 02:18:12;;;;;;;2.55;2.35;;;24.00;93.30;;;;;;5118477;27;45563;-58
2023/06/26 02:20:40;;;;;;;2.78;2.40;;;24.00;93.30;;;;;;5119696;27;47786;-59
2023/06/26 02:23:06;;;;;;;2.38;2.08;;;24.00;93.30;;;;;;5122130;27;45267;-58
2023/06/26 02:25:33;;;;;;;3.63;2.25;;;24.00;93.30;;;;;;5122305;27;45472;-58
2023/06/26 02:28:00;;;;;;;2.85;2.55;;;24.00;93.30;;;;;;5122342;27;45566;-58
2023/06/26 02:30:27;;;;;;;2.97;2.38;;;24.00;93.30;;;;;;5119605;27;45434;-58
2023/06/26 02:32:54;;;;;;;3.20;2.40;;;24.00;93.30;;;;;;5123264;27;45386;-58
2023/06/26 02:35:22;;;;;;;3.63;2.25;;;24.00;93.30;;;;;;5123339;27;45423;-58
2023/06/26 02:37:49;;;;;;;3.33;2.40;;;24.00;93.30;;;;;;5123032;27;45490;-58
2023/06/26 02:40:16;;;;;;;2.95;2.50;;;24.00;93.30;;;;;;5116033;27;45492;-58
2023/06/26 02:42:43;;;;;;;3.20;2.33;;;24.00;93.20;;;;;;5114594;27;45387;-58
2023/06/26 02:45:10;;;;;;;2.90;2.47;;;24.00;93.20;;;;;;5123474;27;45375;-58
2023/06/26 02:47:39;;;;;;;3.13;2.03;;;24.00;93.20;;;;;;5122188;27;45521;-56
2023/06/26 02:50:06;;;;;;;2.65;2.42;;;24.00;93.10;;;;;;5122564;27;46542;-59
2023/06/26 02:52:34;;;;;;;2.70;2.30;;;24.00;93.10;;;;;;5122336;27;45501;-58
2023/06/26 02:55:01;;;;;;;3.63;2.30;;;24.00;93.00;;;;;;5118847;27;45482;-58
2023/06/26 02:57:28;;;;;;;3.58;2.45;;;24.00;93.00;;;;;;5113665;27;45830;-59
2023/06/26 02:59:55;;;;;;;3.72;2.50;;;24.00;92.90;;;;;;5113469;27;45488;-58
2023/06/26 03:02:21;;;;;;;2.28;2.08;;;24.00;92.90;;;;;;5117135;27;45466;-59
2023/06/26 03:04:49;;;;;;;3.38;2.33;;;24.00;92.90;;;;;;5120923;27;45604;-58
2023/06/26 03:07:16;;;;;;;2.70;2.30;;;24.00;94.90;;;;;;5120259;27;45336;-58
2023/06/26 03:09:44;;;;;;;2.65;2.42;;;24.00;95.30;;;;;;5119221;27;45460;-58
2023/06/26 03:12:11;;;;;;;2.25;2.00;;;24.00;93.30;;;;;;5115877;27;45573;-58
2023/06/26 03:14:38;;;;;;;2.53;2.10;;;24.00;93.10;;;;;;5121880;27;45390;-58
2023/06/26 03:17:07;;;;;;;3.22;2.25;;;24.00;94.90;;;;;;5124982;27;45502;-58
2023/06/26 03:19:33;;;;;;;3.53;2.60;;;24.00;93.50;;;;;;5120695;27;47422;-58
2023/06/26 03:22:00;;;;;;;2.65;2.10;;;24.00;93.00;;;;;;5123750;27;45360;-58
2023/06/26 03:24:27;;;;;;;2.95;2.40;;;24.00;95.90;;;;;;5119132;27;45427;-58
2023/06/26 03:26:55;;;;;;;3.08;2.40;;;23.90;95.40;;;;;;5124427;27;45492;-58
2023/06/26 03:29:22;;;;;;;2.60;2.20;;;24.00;96.60;;;;;;5122288;27;47070;-58
2023/06/26 03:31:48;;;;;;;3.10;2.65;;;23.90;95.60;;;;;;5124577;27;45466;-58
2023/06/26 03:34:15;;;;;;;3.67;2.40;;;23.90;96.10;;;;;;5124697;27;45269;-59
2023/06/26 03:36:42;;;;;;;3.13;2.50;;;23.90;96.10;;;;;;5125959;27;45292;-57
2023/06/26 03:39:09;;;;;;;3.38;2.50;;;23.90;96.00;;;;;;5125356;27;45333;-58
2023/06/26 03:41:35;;;;;;;2.90;2.30;;;23.90;95.40;;;;;;5126330;27;45327;-58
2023/06/26 03:44:04;;;;;;;3.22;2.33;;;23.90;95.70;;;;;;5124860;27;45319;-58
2023/06/26 03:46:30;;;;;;;3.13;2.60;;;23.90;96.20;;;;;;5123913;27;45408;-58
2023/06/26 03:48:57;;;;;;;2.90;2.50;;;23.90;96.00;;;;;;5125488;27;46106;-58
2023/06/26 03:51:24;;;;;;;2.60;2.08;;;23.90;94.40;;;;;;5125350;27;45421;-58
2023/06/26 03:53:51;;;;;;;2.70;2.20;;;23.90;96.80;;;;;;5124151;27;45327;-58
2023/06/26 03:56:17;;;;;;;2.30;2.10;;;23.90;95.80;;;;;;5116656;27;45415;-59
2023/06/26 03:58:44;;;;;;;3.42;2.58;;;23.90;95.70;;;;;;5120738;27;46590;-58
2023/06/26 04:01:12;;;;;;;3.00;2.67;;;23.90;93.80;;;;;;5115026;27;45710;-58
2023/06/26 04:03:39;;;;;;;3.28;2.25;;;23.90;95.20;;;;;;5120783;27;45401;-59
2023/06/26 04:06:06;;;;;;;3.22;2.17;;;23.90;93.40;;;;;;5123089;27;45521;-58
2023/06/26 04:08:33;;;;;;;3.45;2.30;;;23.90;93.50;;;;;;5122613;27;46481;-58
2023/06/26 04:11:00;;;;;;;3.00;2.30;;;23.90;93.50;;;;;;5121876;27;45362;-58
2023/06/26 04:13:26;;;;;;;3.47;2.50;;;23.90;94.40;;;;;;5121607;27;45391;-58
2023/06/26 04:15:53;;;;;;;2.88;2.50;;;23.90;93.40;;;;;;5123851;27;45415;-58
2023/06/26 04:18:21;;;;;;;2.50;2.20;;;23.90;94.70;;;;;;5120030;27;47617;-59
2023/06/26 04:21:07;;;;;;;2.83;2.10;;;23.90;94.70;;;;;;5114847;27;45505;-59
2023/06/26 04:23:33;;;;;;;3.53;2.30;;;23.90;95.60;;;;;;5116517;27;45478;-58
2023/06/26 04:26:00;;;;;;;3.22;2.22;;;23.90;95.40;;;;;;5119782;27;45216;-58
2023/06/26 04:28:27;;;;;;;2.50;2.30;;;23.90;94.70;;;;;;5123436;27;45380;-58
2023/06/26 04:30:54;;;;;;;3.05;2.22;;;23.90;94.70;;;;;;5119533;27;45375;-58
2023/06/26 04:33:23;;;;;;;3.50;2.30;;;23.90;94.00;;;;;;5123425;27;45497;-58
2023/06/26 04:35:50;;;;;;;2.97;2.22;;;23.90;94.60;;;;;;5122727;27;45415;-58
2023/06/26 04:38:16;;;;;;;2.42;2.17;;;23.90;94.80;;;;;;5124002;27;48023;-58
2023/06/26 04:40:43;;;;;;;2.80;2.40;;;23.90;93.30;;;;;;5114608;27;45452;-59
2023/06/26 04:43:10;;;;;;;2.80;2.42;;;23.90;93.50;;;;;;5114232;27;45516;-58
2023/06/26 04:45:37;;;;;;;2.67;2.42;;;23.90;93.30;;;;;;5121918;27;45596;-58
2023/06/26 04:48:05;;;;;;;2.90;2.35;;;23.90;94.30;;;;;;5112111;27;46586;-59
2023/06/26 04:50:33;;;;;;;3.25;2.35;;;23.90;94.30;;;;;;5119052;27;45509;-58
2023/06/26 04:53:00;;;;;;;2.33;2.13;;;23.90;93.40;;;;;;5115509;27;45346;-59
2023/06/26 04:55:28;;;;;;;2.97;2.25;;;24.00;93.20;;;;;;5123843;27;45542;-58
2023/06/26 04:57:54;;;;;;;2.85;2.13;;;23.90;93.10;;;;;;5123851;27;46531;-59
2023/06/26 05:00:22;;;;;;;3.03;2.17;;;24.00;93.10;;;;;;5116815;27;45656;-59
2023/06/26 05:02:49;;;;;;;2.35;2.15;;;23.90;93.10;;;;;;5121872;27;45457;-59
2023/06/26 05:05:15;;;;;;;3.15;2.28;;;24.00;93.10;;;;;;5124146;27;45372;-58
2023/06/26 05:07:44;;;;;;;2.35;2.05;;;24.00;93.10;;;;;;5120244;27;47719;-58
2023/06/26 05:10:11;;;;;;;3.17;2.58;;;23.90;93.00;;;;;;5120337;27;46306;-58
2023/06/26 05:12:37;;;;;;;3.20;2.60;;;24.00;93.00;;;;;;5118374;27;45376;-58
2023/06/26 05:15:05;;;;;;;2.28;2.05;;;24.00;93.00;;;;;;5118275;27;45541;-58
2023/06/26 05:17:32;;;;;;;2.97;2.42;;;23.90;92.90;;;;;;5120980;27;47345;-59
2023/06/26 05:19:59;;;;;;;2.22;2.03;;;24.00;92.90;;;;;;5116832;27;45634;-59
2023/06/26 05:22:27;;;;;;;2.47;2.15;;;24.00;92.90;;;;;;5121807;27;45361;-58
2023/06/26 05:24:58;;;;;;;2.20;2.00;;;24.00;92.90;;;;;;5122968;27;45572;-59
2023/06/26 05:27:26;;;;;;;2.63;2.20;;;24.00;92.80;;;;;;5115655;27;47472;-58
2023/06/26 05:29:53;;;;;;;3.35;2.17;;;23.90;93.30;;;;;;5121155;27;45443;-59
2023/06/26 05:32:20;;;;;;;2.90;2.35;;;24.00;93.10;;;;;;5114246;27;45499;-58
2023/06/26 05:34:49;;;;;;;4.22;2.30;;;24.00;92.90;;;;;;5122885;27;45302;-58
2023/06/26 05:37:19;;;;;;;3.78;2.20;;;23.90;92.70;;;;;;5123600;27;48312;-58
2023/06/26 05:39:47;;;;;;;2.92;2.10;;;24.00;92.80;;;;;;5113121;27;45322;-58
2023/06/26 05:42:16;;;;;;;4.38;2.30;;;24.00;93.70;;;;;;5119669;27;45507;-58
2023/06/26 05:44:43;;;;;;;3.90;2.13;;;23.90;92.80;;;;;;5123961;27;45637;-58
2023/06/26 05:47:10;;;;;;;3.10;2.20;;;23.90;92.60;;;;;;5122440;27;45360;-59
2023/06/26 05:49:36;;;;;;;3.67;2.30;;;24.00;92.70;;;;;;5122763;27;45850;-58
2023/06/26 05:52:04;;;;;;;3.17;2.20;;;23.90;94.00;;;;;;5124227;27;45425;-59
2023/06/26 05:54:31;;;;;;;3.95;2.45;;;23.90;92.50;;;;;;5123859;27;45379;-57
2023/06/26 05:56:59;;;;;;;3.47;2.33;;;23.90;92.60;;;;;;5123342;27;47343;-58
2023/06/26 05:59:28;;;;;;;2.30;1.92;;;24.00;92.50;;;;;;5121253;27;45522;-58
2023/06/26 06:01:54;;;;;;;3.85;2.30;;;24.00;92.80;;;;;;5122089;27;45400;-59
2023/06/26 06:04:21;;;;;;;3.15;2.20;;;24.00;92.40;;;;;;5123210;27;45585;-58
2023/06/26 06:06:48;;;;;;;3.17;2.20;;;24.00;92.30;;;;;;5122972;27;46259;-59
2023/06/26 06:09:15;;;;;;;2.95;2.05;;;24.00;92.30;;;;;;5121146;27;45530;-58
2023/06/26 06:11:41;;;;;;;2.80;2.00;;;24.00;92.30;;;;;;5123329;27;45374;-58
2023/06/26 06:14:08;;;;;;;3.10;2.50;;;24.00;92.20;;;;;;5121576;27;45432;-58
2023/06/26 06:16:37;;;;;;;3.08;1.75;;;24.00;92.30;;;;;;5121318;27;46402;-58
2023/06/26 06:19:06;;;;;;;3.75;2.25;;;24.00;92.20;;;;;;5122468;27;45292;-58
2023/06/26 06:21:33;;;;;;;4.22;2.22;;;24.00;92.20;;;;;;5123388;27;45399;-59
2023/06/26 06:24:01;;;;;;;2.55;2.08;;;24.00;92.20;;;;;;5123535;27;45413;-59
2023/06/26 06:26:27;;;;;;;2.50;2.20;;;24.00;92.30;;;;;;5121678;27;45387;-58
2023/06/26 06:28:54;;;;;;;2.58;1.83;;;24.00;93.00;;;;;;5122002;27;45500;-59
2023/06/26 06:31:21;;;;;;;2.60;1.98;;;24.00;92.30;;;;;;5116212;27;45403;-58
2023/06/26 06:33:49;;;;;;;2.15;1.83;;;24.10;92.70;;;;;;5123456;27;45386;-59
2023/06/26 06:36:16;;;;;;;1.90;1.70;;;24.10;93.50;;;;;;5123693;27;45537;-57
2023/06/26 06:38:44;;;;;;;3.53;1.90;;;24.10;93.30;;;;;;5122276;27;45257;-59
2023/06/26 06:41:11;;;;;;;3.03;2.13;;;24.10;93.90;;;;;;5122700;27;45515;-59
2023/06/26 06:43:38;;;;;;;3.25;2.03;;;24.10;92.90;;;;;;5114572;27;45323;-59
2023/06/26 06:46:04;;;;;;;4.15;2.28;;;24.10;93.00;;;;;;5120520;27;46501;-58
2023/06/26 06:48:32;;;;;;;3.70;2.20;;;24.10;92.80;;;;;;5124032;27;45305;-59
2023/06/26 06:51:00;;;;;;;2.65;1.90;;;24.10;92.40;;;;;;5125615;27;45629;-58
2023/06/26 06:53:27;;;;;;;2.65;2.20;;;24.10;94.00;;;;;;5115988;27;45577;-59
2023/06/26 06:55:53;;;;;;;4.25;2.42;;;24.10;92.50;;;;;;5126335;27;46603;-59
2023/06/26 06:58:20;;;;;;;4.70;2.35;;;24.10;93.40;;;;;;5125626;27;46393;-58
2023/06/26 07:00:47;;;;;;;4.13;1.95;;;24.10;92.70;;;;;;5125377;27;45350;-59
2023/06/26 07:03:14;;;;;;;3.95;2.33;;;24.10;92.50;;;;;;5127223;27;45476;-59
2023/06/26 07:05:43;;;;;;;3.38;1.95;;;24.10;92.40;;;;;;5125265;27;45435;-59
2023/06/26 07:08:11;;;;;;;3.70;2.25;;;24.10;93.40;;;;;;5125707;27;45249;-59
2023/06/26 07:10:38;;;;;;;2.85;2.10;;;24.10;93.70;;;;;;5126459;27;45438;-59
2023/06/26 07:13:04;;;;;;;2.85;2.20;;;24.10;93.80;;;;;;5125501;27;45429;-59
2023/06/26 07:15:32;;;;;;;3.05;2.10;;;24.10;94.00;;;;;;5126102;27;46596;-59
2023/06/26 07:17:59;;;;;;;3.53;2.10;;;24.10;92.90;;;;;;5126141;27;45518;-59
2023/06/26 07:20:25;;;;;;;2.33;1.90;;;24.10;93.90;;;;;;5125218;27;45283;-59
2023/06/26 07:22:53;;;;;;;2.67;2.00;;;24.00;93.70;;;;;;5126078;27;45386;-59
2023/06/26 07:25:21;;;;;;;3.65;2.00;;;24.10;93.30;;;;;;5125746;27;45287;-59
2023/06/26 07:27:48;;;;;;;3.15;1.88;;;24.10;93.60;;;;;;5125936;27;45328;-58
2023/06/26 07:30:15;;;;;;;1.92;1.70;;;24.00;93.80;;;;;;5125958;27;45420;-59
2023/06/26 07:32:42;;;;;;;2.40;1.90;;;24.00;93.20;;;;;;5125475;27;45321;-59
2023/06/26 07:35:09;;;;;;;3.58;2.20;;;24.10;93.80;;;;;;5121832;27;48546;-59
2023/06/26 07:37:36;;;;;;;2.72;1.88;;;24.00;92.70;;;;;;5125772;27;45526;-58
2023/06/26 07:40:03;;;;;;;4.85;1.90;;;24.10;92.30;;;;;;5125749;27;45453;-58
2023/06/26 07:42:31;;;;;;;3.13;1.85;;;24.10;92.50;;;;;;5125635;27;45457;-59
2023/06/26 07:44:58;;;;;;;2.58;1.73;;;24.00;92.40;;;;;;5126209;27;47232;-58
2023/06/26 07:47:25;;;;;;;2.72;1.88;;;24.10;92.80;;;;;;5123737;27;45513;-59
2023/06/26 07:49:52;;;;;;;3.17;1.77;;;24.10;92.80;;;;;;5125093;27;45430;-59
2023/06/26 07:52:19;;;;;;;2.35;1.80;;;24.10;92.80;;;;;;5125389;27;45433;-59
2023/06/26 07:54:46;;;;;;;3.97;2.03;;;24.10;92.60;;;;;;5123873;27;45463;-59
2023/06/26 07:57:13;;;;;;;3.08;1.85;;;24.10;92.10;;;;;;5126091;27;45281;-59
2023/06/26 07:59:41;;;;;;;3.00;1.67;;;24.10;92.10;;;;;;5124172;27;45498;-59
2023/06/26 08:02:08;;;;;;;4.38;2.05;;;24.10;93.10;;;;;;5124865;27;45369;-59
2023/06/26 08:04:35;;;;;;;4.43;1.88;;;24.10;92.50;;;;;;5125371;27;47317;-59
2023/06/26 08:07:03;;;;;;;4.35;2.22;;;24.10;92.50;;;;;;5123831;27;45280;-59
2023/06/26 08:09:30;;;;;;;3.00;1.67;;;24.00;93.10;;;;;;5111053;27;45531;-59
2023/06/26 08:11:58;;;;;;;2.47;1.58;;;24.10;92.60;;;;;;5111612;27;45650;-59
2023/06/26 08:14:25;;;;;;;3.15;1.88;;;24.10;92.40;;;;;;5109982;27;46394;-59
2023/06/26 08:16:53;;;;;;;3.17;1.90;;;24.10;92.30;;;;;;5112693;27;45345;-58
2023/06/26 08:19:20;;;;;;;2.15;1.55;;;24.10;94.00;;;;;;5116032;27;45507;-59
2023/06/26 08:21:48;;;;;;;2.97;1.80;;;24.00;93.00;;;;;;5114386;27;45603;-59
2023/06/26 08:24:16;;;;;;;6.57;2.33;;;24.10;93.30;;;;;;5123966;27;47559;-59
2023/06/26 08:26:43;;;;;;;5.20;2.13;;;24.00;92.30;;;;;;5122613;27;45240;-59
2023/06/26 08:29:09;;;;;;;4.25;1.90;;;24.00;92.40;;;;;;5112729;27;45271;-59
2023/06/26 08:31:36;;;;;;;3.05;1.85;;;24.10;92.30;;;;;;5118251;27;45509;-59
2023/06/26 08:34:05;;;;;;;2.88;1.73;;;24.10;93.60;;;;;;5113271;27;46693;-58
2023/06/26 08:36:33;;;;;;;2.53;1.55;;;24.00;93.00;;;;;;5119538;27;45508;-59
2023/06/26 08:39:00;;;;;;;2.88;1.80;;;24.00;92.30;;;;;;5118285;27;45492;-59
2023/06/26 08:41:26;;;;;;;3.47;1.90;;;24.00;93.10;;;;;;5118225;27;45245;-59
2023/06/26 08:43:53;;;;;;;4.93;2.05;;;24.00;92.60;;;;;;5125042;27;46556;-59
2023/06/26 08:46:20;;;;;;;2.50;1.95;;;24.00;92.20;;;;;;5122646;27;45578;-59
2023/06/26 08:48:50;;;;;;;2.40;1.65;;;24.10;93.10;;;;;;5114218;27;45457;-59
2023/06/26 08:51:21;;;;;;;2.75;1.65;;;24.10;92.90;;;;;;5117328;27;45323;-59
2023/06/26 08:53:54;;;;;;;2.63;1.83;;;24.00;92.80;;;;;;5124802;27;47554;-59
2023/06/26 08:56:22;;;;;;;2.88;1.90;;;24.10;92.30;;;;;;5124470;27;45438;-59
2023/06/26 08:58:50;;;;;;;4.57;1.85;;;24.00;92.10;;;;;;5122867;27;45254;-58
2023/06/26 09:01:18;;;;;;;3.55;2.03;;;24.10;93.20;;;;;;5123562;27;45292;-59
2023/06/26 09:03:45;;;;;;;3.75;1.80;;;24.10;92.40;;;;;;5113363;27;48141;-59
2023/06/26 09:06:12;;;;;;;4.00;1.65;;;24.10;92.10;;;;;;5104555;27;45449;-59
2023/06/26 09:08:40;;;;;;;4.53;2.00;;;24.10;92.20;;;;;;5122606;27;45359;-59
2023/06/26 09:11:07;;;;;;;3.42;1.80;;;24.10;92.10;;;;;;5115001;27;45344;-59
2023/06/26 09:13:34;;;;;;;5.03;1.80;;;24.10;92.20;;;;;;5110301;27;46330;-59
2023/06/26 09:16:07;;;;;;;2.72;1.80;;;24.10;93.00;;;;;;5112559;27;45255;-59
2023/06/26 09:18:34;;;;;;;3.95;1.70;;;24.10;92.00;;;;;;5119973;27;45532;-59
2023/06/26 09:21:06;;;;;;;3.50;1.80;;;24.10;93.10;;;;;;5119469;27;45337;-59
2023/06/26 09:23:34;;;;;;;4.28;1.50;;;24.10;93.20;;;;;;5112810;27;46321;-57
2023/06/26 09:26:03;;;;;;;3.67;1.83;;;24.10;92.60;;;;;;5122793;27;45745;-59
2023/06/26 09:28:31;;;;;;;2.63;1.88;;;24.00;93.00;;;;;;5122222;27;45268;-59
2023/06/26 09:31:02;;;;;;;3.33;1.80;;;24.10;92.10;;;;;;5124893;27;45499;-59
2023/06/26 09:33:33;;;;;;;2.85;1.88;;;24.10;92.40;;;;;;5115106;27;45279;-58
2023/06/26 09:36:00;;;;;;;3.35;1.70;;;24.10;92.20;;;;;;5113578;27;45573;-58
2023/06/26 09:38:27;;;;;;;2.83;1.90;;;24.10;92.20;;;;;;5114733;27;45355;-59
2023/06/26 09:40:54;;;;;;;3.20;1.80;;;24.10;91.90;;;;;;5122415;27;45312;-59
2023/06/26 09:43:22;;;;;;;4.43;1.92;;;24.10;93.70;;;;;;5115164;27;47073;-59
2023/06/26 09:45:49;;;;;;;3.05;1.90;;;24.10;92.30;;;;;;5106953;27;45372;-59
2023/06/26 09:48:17;;;;;;;3.15;1.77;;;24.10;92.40;;;;;;5122392;27;45409;-59
2023/06/26 09:50:44;;;;;;;4.00;1.77;;;24.10;93.60;;;;;;5124187;27;45534;-59
2023/06/26 09:53:13;;;;;;;3.42;1.80;;;24.10;92.70;;;;;;5123880;27;47503;-59
2023/06/26 09:55:43;;;;;;;3.95;2.08;;;24.10;92.70;;;;;;5110099;27;45546;-58
2023/06/26 09:58:14;;;;;;;3.03;1.92;;;24.10;92.10;;;;;;5121423;27;45273;-59
2023/06/26 10:00:43;;;;;;;3.42;1.77;;;24.10;92.80;;;;;;5114476;27;45236;-58
2023/06/26 10:03:10;;;;;;;3.70;1.65;;;24.20;93.00;;;;;;5115620;27;46596;-59
2023/06/26 10:05:38;;;;;;;2.65;1.40;;;24.20;91.80;;;;;;5113475;27;45415;-59
2023/06/26 10:08:06;;;;;;;3.65;1.90;;;24.20;93.10;;;;;;5109903;27;45314;-59
2023/06/26 10:10:35;;;;;;;2.95;1.60;;;24.20;93.10;;;;;;5113853;27;45276;-58
2023/06/26 10:13:12;;;;;;;3.10;1.50;;;24.20;91.60;;;;;;5111180;27;46081;-57
2023/06/26 10:15:41;;;;;;;4.50;1.33;;;24.20;91.50;;;;;;5112959;27;45312;-59
2023/06/26 10:18:10;;;;;;;4.18;2.10;;;24.20;91.50;;;;;;5112253;27;45389;-59
2023/06/26 10:20:37;;;;;;;4.57;1.77;;;24.20;91.20;;;;;;5119387;27;45690;-59
2023/06/26 10:23:06;;;;;;;3.88;1.63;;;24.20;91.10;;;;;;5114942;27;47157;-59
2023/06/26 10:25:33;;;;;;;2.90;1.60;;;24.20;91.00;;;;;;5110212;27;45475;-58
2023/06/26 10:28:03;;;;;;;4.78;1.70;;;24.20;90.90;;;;;;5117801;27;45264;-58
2023/06/26 10:30:34;;;;;;;2.77;1.60;;;24.20;90.80;;;;;;5114818;27;45516;-59
2023/06/26 10:33:02;;;;;;;3.10;1.70;;;24.20;90.70;;;;;;5109831;27;47351;-58
2023/06/26 10:35:31;;;;;;;4.15;1.77;;;24.20;90.50;;;;;;5116474;27;45611;-58
2023/06/26 10:38:02;;;;;;;5.72;1.50;;;24.20;90.60;;;;;;5122594;27;45286;-59
2023/06/26 10:40:40;;;;;;;3.50;1.40;;;24.20;90.50;;;;;;5113190;27;45350;-59
2023/06/26 10:43:08;;;;;;;4.40;1.50;;;24.20;90.40;;;;;;5116365;27;46591;-59
2023/06/26 10:45:36;;;;;;;1.65;1.40;;;24.20;90.40;;;;;;5120715;27;45563;-59
2023/06/26 10:48:04;;;;;;;2.35;1.40;;;24.20;90.30;;;;;;5121578;27;45416;-59
2023/06/26 10:50:35;;;;;;;3.00;1.30;;;24.20;90.20;;;;;;5119505;27;45318;-59
2023/06/26 10:53:18;;;;;;;1.42;1.02;;;24.20;90.20;;;;;;5119323;27;48646;-59
2023/06/26 10:55:51;;;;;;;2.08;1.20;;;24.20;90.00;;;;;;5121517;27;45905;-59
2023/06/26 10:58:32;;;;;;;1.98;1.35;;;24.20;89.80;;;;;;5109474;27;45365;-58
2023/06/26 11:01:22;;;;;;;2.08;1.40;;;24.20;90.00;;;;;;5115679;27;45289;-58
2023/06/26 11:03:50;;;;;;;2.22;1.27;;;24.20;89.40;;;;;;5114598;27;47585;-59
2023/06/26 11:06:21;;;;;;;2.72;1.40;;;24.20;89.50;;;;;;5113917;27;45394;-59
2023/06/26 11:08:49;;;;;;;2.65;1.33;;;24.20;89.10;;;;;;5113644;27;45474;-58
2023/06/26 11:11:16;;;;;;;2.05;1.13;;;24.20;90.00;;;;;;5114689;27;45411;-59
2023/06/26 11:13:43;;;;;;;1.27;0.93;;;24.20;88.90;;;;;;5114179;27;45471;-59
2023/06/26 11:16:12;;;;;;;1.35;0.90;;;24.20;88.80;;;;;;5114979;27;45390;-58
2023/06/26 11:18:39;;;;;;;2.13;1.20;;;24.20;88.70;;;;;;5104315;27;45275;-58
2023/06/26 11:21:07;;;;;;;1.33;0.93;;;24.20;88.60;;;;;;5122095;27;45305;-59
2023/06/26 11:23:37;;;;;;;1.85;1.23;;;24.20;88.20;;;;;;5113215;27;48292;-58
2023/06/26 11:26:15;;;;;;;2.13;1.08;;;24.20;87.80;;;;;;5115486;27;45269;-59
2023/06/26 11:28:48;;;;;;;1.63;1.00;;;24.20;87.60;;;;;;5102806;27;45587;-59
2023/06/26 11:31:25;;;;;;;3.10;1.30;;;24.20;87.80;;;;;;5114154;27;45429;-59
2023/06/26 11:33:52;;;;;;;1.65;0.90;;;24.20;87.50;;;;;;5114736;27;49157;-59
2023/06/26 11:36:19;;;;;;;1.63;1.20;;;24.20;87.50;;;;;;5124884;27;45397;-59
2023/06/26 11:38:47;;;;;;;1.58;0.95;;;24.20;87.60;;;;;;5114386;27;45367;-59
2023/06/26 11:41:18;;;;;;;2.28;1.00;;;24.20;87.70;;;;;;5113247;27;45450;-58
2023/06/26 11:43:45;;;;;;;2.15;0.90;;;24.20;87.70;;;;;;5117029;27;46067;-58
2023/06/26 11:46:11;;;;;;;2.15;1.08;;;24.20;87.20;;;;;;5120218;27;45365;-58
2023/06/26 11:48:39;;;;;;;1.73;0.90;;;24.20;86.70;;;;;;5114492;27;45355;-59
2023/06/26 11:51:06;;;;;;;1.08;0.82;;;24.20;86.10;;;;;;5117249;27;45472;-59
2023/06/26 11:53:41;;;;;;;8.40;1.55;;;24.20;86.00;;;;;;5111903;27;45389;-56
2023/06/26 11:56:13;;;;;;;4.65;1.50;;;24.20;90.00;;;;;;5111614;27;45648;-58
2023/06/26 11:58:58;;;;;;;7.38;1.30;;;24.30;91.00;;;;;;5114134;27;45378;-58
2023/06/26 12:01:26;;;;;;;4.07;1.25;;;24.30;90.10;;;;;;5119624;27;45520;-58
2023/06/26 12:03:55;;;;;;;3.22;1.20;;;24.20;90.30;;;;;;5118837;27;46672;-58
2023/06/26 12:06:22;;;;;;;5.40;1.13;;;24.20;90.60;;;;;;5109160;27;45432;-59
2023/06/26 12:08:49;;;;;;;3.80;1.10;;;24.20;90.70;;;;;;5116632;27;45231;-59
2023/06/26 12:11:18;;;;;;;1.67;1.08;;;24.30;91.20;;;;;;5110367;27;45396;-59
2023/06/26 12:13:46;;;;;;;1.63;1.10;;;24.20;91.20;;;;;;5115346;27;47094;-58
2023/06/26 12:16:15;;;;;;;3.70;0.85;;;24.20;91.30;;;;;;5117185;27;45359;-58
2023/06/26 12:18:41;;;;;;;1.00;0.90;;;24.20;91.30;;;;;;5109754;27;45417;-58
2023/06/26 12:21:08;;;;;;;1.42;0.95;;;24.30;91.20;;;;;;5123868;27;45499;-58
2023/06/26 12:23:39;;;;;;;3.85;1.00;;;24.20;91.20;;;;;;5118532;27;46576;-59
2023/06/26 12:26:20;;;;;;;0.75;0.73;;;24.20;91.00;;;;;;5116631;27;45704;-58
2023/06/26 12:28:47;;;;;;;0.82;0.60;;;24.20;90.80;;;;;;5118016;27;45315;-58
2023/06/26 12:31:15;;;;;;;2.83;1.00;;;24.20;90.50;;;;;;5118480;27;45410;-59
2023/06/26 12:33:43;;;;;;;0.98;0.75;;;24.20;91.00;;;;;;5123213;27;45290;-58
2023/06/26 12:36:12;;;;;;;1.38;0.82;;;24.20;90.50;;;;;;5119073;27;45289;-58
2023/06/26 12:38:38;;;;;;;1.70;0.98;;;24.20;90.60;;;;;;5109830;27;45268;-59
2023/06/26 12:41:05;;;;;;;4.22;1.00;;;24.20;90.80;;;;;;5108228;27;45344;-59
2023/06/26 12:43:39;;;;;;;2.28;1.00;;;24.20;90.70;;;;;;5112730;27;45886;-56
2023/06/26 12:46:05;;;;;;;1.02;0.80;;;24.20;90.90;;;;;;5117936;27;45326;-58
2023/06/26 12:48:43;;;;;;;1.50;1.00;;;24.20;91.10;;;;;;5122222;27;45524;-58
2023/06/26 12:51:11;;;;;;;1.15;0.88;;;24.20;90.80;;;;;;5118133;27;45443;-58
2023/06/26 12:53:39;;;;;;;1.30;0.75;;;24.20;90.50;;;;;;5116341;27;47611;-58